Weather History for KDCM - April, 2013

Change the Weather History Date:

Monday, April 22, 2013

  Actual Average (KUZA) Record (KUZA)
Temperature  
Mean Temperature 53 °F -  
Max Temperature 64 °F 74 °F 89 °F (1957)
Min Temperature 42 °F 51 °F 32 °F (1978)
Degree Days  
Heating Degree Days 12    
Growing Degree Days 3 (Base 50)    
Moisture  
Dew Point 35 °F    
Average Humidity 55    
Maximum Humidity 87    
Minimum Humidity 30    
Precipitation  
Precipitation 0.00 in - - ()
Sea Level Pressure  
Sea Level Pressure 30.32 in    
Wind  
Wind Speed 9 mph (NE)    
Max Wind Speed 17 mph    
Max Gust Speed 25 mph    
Visibility 10 miles    
Events      
Averages and records for this station are not official NWS values.
T = Trace of Precipitation, MM = Missing Value Source: NWS Daily Summary

Daily Weather History Graph

Daily Weather History Graph

Search for Another Location

Airport or City:

Trip Planner

Search our weather history database for the weather conditions in past years. The results will help you decide how hot, cold, wet, or windy it might be!

Date:

Astronomy

Apr. 22, 2013 Rise Set
Actual Time 6:44 AM EDT 8:02 PM EDT
Civil Twilight 6:17 AM EDT 8:29 PM EDT
Nautical Twilight 5:46 AM EDT 9:00 PM EDT
Astronomical Twilight 5:13 AM EDT 9:33 PM EDT
Moon 4:57 PM EDT (4/22) 4:29 AM EDT (4/22)
Length of Visible Light 14h 11m
Length of Day
13h 18m
Waxing Gibbous, 87% of the Moon is Illuminated
Apr 22
Waxing Gibbous
Apr 25
Full
May 2
Last Quarter
May 9
New
May 18
First Quarter

Hourly Weather History & Observations

Time (EDT) Temp. Windchill Dew Point Humidity Pressure Visibility Wind Dir Wind Speed Gust Speed Precip Events Conditions
12:15 AM 50.0 °F - 41.0 °F 71% 30.40 in 10.0 mi NE 6.9 mph - N/A   Clear
12:35 AM 50.0 °F - 41.0 °F 71% 30.40 in 10.0 mi ENE 9.2 mph - N/A   Clear
12:55 AM 48.2 °F - 41.0 °F 76% 30.40 in 10.0 mi NE 5.8 mph - N/A   Clear
1:15 AM 50.0 °F - 41.0 °F 71% 30.40 in 10.0 mi ENE 5.8 mph - N/A   Clear
1:35 AM 48.2 °F - 41.0 °F 76% 30.39 in 10.0 mi NE 8.1 mph - N/A   Clear
1:55 AM 46.4 °F 42.9 °F 41.0 °F 81% 30.39 in 10.0 mi ENE 6.9 mph - N/A   Clear
2:15 AM 46.4 °F 42.4 °F 41.0 °F 81% 30.38 in 10.0 mi NE 8.1 mph - N/A   Clear
2:35 AM 46.4 °F 42.9 °F 41.0 °F 81% 30.37 in 10.0 mi NE 6.9 mph - N/A   Clear
2:55 AM 46.4 °F 42.4 °F 41.0 °F 81% 30.36 in 10.0 mi ENE 8.1 mph - N/A   Clear
3:15 AM 46.4 °F 42.4 °F 41.0 °F 81% 30.36 in 10.0 mi ENE 8.1 mph - N/A   Clear
3:35 AM 46.4 °F 43.5 °F 41.0 °F 81% 30.36 in 10.0 mi NE 5.8 mph - N/A   Clear
3:55 AM 44.6 °F 40.2 °F 41.0 °F 87% 30.35 in 10.0 mi NE 8.1 mph - N/A   Clear
4:15 AM 44.6 °F 39.2 °F 41.0 °F 87% 30.35 in 10.0 mi NE 10.4 mph - N/A   Clear
4:35 AM 44.6 °F 39.2 °F 41.0 °F 87% 30.35 in 10.0 mi NE 10.4 mph - N/A   Clear
4:55 AM 44.6 °F 39.2 °F 41.0 °F 87% 30.35 in 10.0 mi NE 10.4 mph 16.1 mph N/A   Clear
5:15 AM 44.6 °F 40.2 °F 41.0 °F 87% 30.36 in 10.0 mi NE 8.1 mph - N/A   Clear
5:35 AM 44.6 °F 40.2 °F 39.2 °F 81% 30.37 in 10.0 mi NE 8.1 mph - N/A   Clear
5:55 AM 44.6 °F 38.8 °F 39.2 °F 81% 30.37 in 10.0 mi NE 11.5 mph - N/A   Clear
6:15 AM 42.8 °F 37.0 °F 37.4 °F 81% 30.38 in 10.0 mi NE 10.4 mph - N/A   Clear
6:35 AM 42.8 °F 37.5 °F 37.4 °F 81% 30.39 in 10.0 mi NE 9.2 mph - N/A   Clear
6:55 AM 42.8 °F 37.5 °F 37.4 °F 81% 30.39 in 10.0 mi NE 9.2 mph - N/A   Clear
7:15 AM 42.8 °F 38.0 °F 37.4 °F 81% 30.41 in 10.0 mi NNE 8.1 mph - N/A   Clear
7:35 AM 44.6 °F 39.2 °F 35.6 °F 71% 30.41 in 10.0 mi NNE 10.4 mph - N/A   Clear
7:55 AM 44.6 °F 39.2 °F 37.4 °F 76% 30.41 in 10.0 mi NNE 10.4 mph 18.4 mph N/A   Clear
8:15 AM 46.4 °F 39.8 °F 35.6 °F 66% 30.41 in 10.0 mi NE 16.1 mph 20.7 mph N/A   Clear
8:35 AM 46.4 °F 39.5 °F 33.8 °F 62% 30.41 in 10.0 mi NNE 17.3 mph 25.3 mph N/A   Clear
8:55 AM 48.2 °F - 33.8 °F 58% 30.41 in 10.0 mi NE 10.4 mph 21.9 mph N/A   Clear
9:15 AM 50.0 °F - 33.8 °F 54% 30.40 in 10.0 mi NNE 16.1 mph - N/A   Clear
9:35 AM 50.0 °F - 32.0 °F 50% 30.40 in 10.0 mi NNE 17.3 mph 24.2 mph N/A   Clear
9:55 AM 51.8 °F - 32.0 °F 47% 30.40 in 10.0 mi NNE 16.1 mph 21.9 mph N/A   Clear
10:15 AM 53.6 °F - 32.0 °F 44% 30.40 in 10.0 mi NE 15.0 mph 25.3 mph N/A   Clear
10:35 AM 53.6 °F - 32.0 °F 44% 30.40 in 10.0 mi North 13.8 mph 20.7 mph N/A   Clear
10:55 AM 55.4 °F - 32.0 °F 41% 30.39 in 10.0 mi NNE 16.1 mph 21.9 mph N/A   Clear
11:15 AM 55.4 °F - 32.0 °F 41% 30.39 in 10.0 mi NE 16.1 mph 25.3 mph N/A   Clear
11:35 AM 57.2 °F - 32.0 °F 38% 30.37 in 10.0 mi NE 16.1 mph 23.0 mph N/A   Clear
11:55 AM 59.0 °F - 32.0 °F 36% 30.36 in 10.0 mi NE 12.7 mph 24.2 mph N/A   Clear
12:15 PM 59.0 °F - 32.0 °F 36% 30.35 in 10.0 mi NNE 10.4 mph 20.7 mph N/A   Clear
12:35 PM 60.8 °F - 32.0 °F 34% 30.34 in 10.0 mi NNE 9.2 mph 19.6 mph N/A   Clear
12:55 PM 60.8 °F - 32.0 °F 34% 30.33 in 10.0 mi NE 15.0 mph 19.6 mph N/A   Clear
1:15 PM 60.8 °F - 32.0 °F 34% 30.32 in 10.0 mi NE 16.1 mph 21.9 mph N/A   Clear
1:35 PM 62.6 °F - 33.8 °F 34% 30.32 in 10.0 mi North 13.8 mph 19.6 mph N/A   Clear
1:55 PM 62.6 °F - 33.8 °F 34% 30.31 in 10.0 mi North 17.3 mph 21.9 mph N/A   Clear
2:15 PM 62.6 °F - 32.0 °F 32% 30.30 in 10.0 mi North 8.1 mph - N/A   Clear
2:35 PM 62.6 °F - 32.0 °F 32% 30.30 in 10.0 mi North 10.4 mph 18.4 mph N/A   Clear
2:55 PM 62.6 °F - 32.0 °F 32% 30.29 in 10.0 mi NE 9.2 mph 17.3 mph N/A   Clear
3:15 PM 64.4 °F - 32.0 °F 30% 30.28 in 10.0 mi NNE 6.9 mph - N/A   Clear
3:35 PM 64.4 °F - 32.0 °F 30% 30.27 in 10.0 mi North 13.8 mph 17.3 mph N/A   Clear
3:55 PM 64.4 °F - 32.0 °F 30% 30.26 in 10.0 mi NE 8.1 mph - N/A   Clear
4:15 PM 64.4 °F - 32.0 °F 30% 30.25 in 10.0 mi North 9.2 mph 16.1 mph N/A   Clear
4:35 PM 64.4 °F - 32.0 °F 30% 30.24 in 10.0 mi NNE 10.4 mph 17.3 mph N/A   Clear
4:55 PM 64.4 °F - 32.0 °F 30% 30.24 in 10.0 mi NNE 11.5 mph - N/A   Clear
5:15 PM 64.4 °F - 32.0 °F 30% 30.23 in 10.0 mi NE 5.8 mph - N/A   Clear
5:35 PM 64.4 °F - 32.0 °F 30% 30.23 in 10.0 mi NE 8.1 mph - N/A   Clear
5:55 PM 64.4 °F - 32.0 °F 30% 30.23 in 10.0 mi NNE 8.1 mph - N/A   Clear
6:15 PM 64.4 °F - 32.0 °F 30% 30.22 in 10.0 mi NE 9.2 mph 17.3 mph N/A   Clear
6:35 PM 62.6 °F - 32.0 °F 32% 30.22 in 10.0 mi NNE 8.1 mph - N/A   Clear
6:55 PM 62.6 °F - 32.0 °F 32% 30.22 in 10.0 mi NNE 8.1 mph - N/A   Clear
7:15 PM 60.8 °F - 33.8 °F 36% 30.22 in 10.0 mi NNE 4.6 mph - N/A   Clear
7:35 PM 59.0 °F - 33.8 °F 39% 30.22 in 10.0 mi NE 6.9 mph - N/A   Clear
7:55 PM 57.2 °F - 33.8 °F 41% 30.23 in 10.0 mi NE 3.5 mph - N/A   Clear
8:15 PM 53.6 °F - 35.6 °F 51% 30.23 in 10.0 mi NNE 3.5 mph - N/A   Clear
8:35 PM 53.6 °F - 35.6 °F 51% 30.24 in 10.0 mi Calm Calm - N/A   Clear
8:55 PM 51.8 °F - 35.6 °F 54% 30.24 in 10.0 mi NE 3.5 mph - N/A   Clear
9:15 PM 51.8 °F - 33.8 °F 50% 30.25 in 10.0 mi NNE 4.6 mph - N/A   Clear
9:35 PM 51.8 °F - 33.8 °F 50% 30.25 in 10.0 mi NNE 4.6 mph - N/A   Clear
9:55 PM 51.8 °F - 35.6 °F 54% 30.25 in 10.0 mi NNE 3.5 mph - N/A   Clear
10:15 PM 51.8 °F - 33.8 °F 50% 30.25 in 10.0 mi NE 5.8 mph - N/A   Clear
10:35 PM 50.0 °F - 35.6 °F 58% 30.25 in 10.0 mi NE 4.6 mph - N/A   Clear
10:55 PM 50.0 °F - 35.6 °F 58% 30.25 in 10.0 mi NNE 4.6 mph - N/A   Clear
11:15 PM 48.2 °F - 35.6 °F 62% 30.25 in 10.0 mi NE 4.6 mph - N/A   Clear
11:35 PM 50.0 °F - 35.6 °F 58% 30.26 in 10.0 mi NNE 4.6 mph - N/A   Clear
11:55 PM 50.0 °F - 35.6 °F 58% 30.26 in 10.0 mi NNE 4.6 mph - N/A   Clear